Time;durP1;ratioP1;P1;durP2;ratioP2;P2;SDS_P1;SDS_P2;PMS_P1;PMS_P2;Temp;Humidity;BMP_temperature;BMP_pressure;BME280_temperature;BME280_humidity;BME280_pressure;Samples;Min_cycle;Max_cycle;Signal;HPM_P1;HPM_P2
2021/01/21 10:22:53;;;;;;;;;;;;;;;6.09;64.90;100862.59;4977587;28;19918;-80
2021/01/21 10:25:37;;;;;;;;;;;;;;;5.36;65.99;100857.06;4969196;28;19914;-80
2021/01/21 10:28:21;;;;;;;;;;;;;;;5.83;66.60;100829.56;4943772;28;19914;-79
2021/01/21 10:31:06;;;;;;;;;;;;;;;6.35;65.37;100812.66;4956816;28;19914;-79
2021/01/21 10:33:50;;;;;;;;;;;;;;;6.71;63.43;100805.00;4980978;28;19914;-80
2021/01/21 10:36:35;;;;;;;;;;;;;;;7.03;63.25;100811.69;4955477;28;19914;-81
2021/01/21 10:39:19;;;;;;;;;;;;;;;7.28;62.02;100804.06;4954919;28;19918;-79
2021/01/21 10:42:04;;;;;;;;;;;;;;;7.40;61.29;100806.34;4957761;28;19914;-79
2021/01/21 10:44:48;;;;;;;;;;;;;;;7.35;61.33;100814.53;4953576;29;19918;-80
2021/01/21 10:47:33;;;;;;;;;;;;;;;7.12;62.07;100808.03;4954487;29;19914;-80
2021/01/21 10:50:17;;;;;;;;;;;;;;;7.02;63.42;100807.34;4952142;28;19918;-79
2021/01/21 10:53:01;;;;;;;;;;;;;;;7.05;63.17;100804.09;4969436;28;20388;-80
2021/01/21 10:55:46;;;;;;;;;;;;;;;7.06;62.91;100809.19;4956073;28;20381;-79
2021/01/21 10:58:30;;;;;;;;;;;;;;;6.73;63.45;100802.84;4954441;28;19919;-80
2021/01/21 11:01:16;;;;;;;;;;;;;;;6.85;63.81;100800.56;4958879;28;20384;-79
2021/01/21 11:04:01;;;;;;;;;;;;;;;7.09;63.43;100795.13;4973795;28;19914;-80
2021/01/21 11:06:45;;;;;;;;;;;;;;;7.05;62.58;100794.09;4955448;28;19914;-79
2021/01/21 11:09:35;;;;;;;;;;;;;;;6.90;63.61;100790.75;4961067;28;19915;-79
2021/01/21 11:12:19;;;;;;;;;;;;;;;7.05;63.33;100788.69;4954247;29;19915;-79
2021/01/21 11:15:04;;;;;;;;;;;;;;;6.82;63.38;100787.59;4954334;28;19918;-79
2021/01/21 11:17:49;;;;;;;;;;;;;;;6.71;64.45;100783.41;4955511;28;19918;-79
2021/01/21 11:20:34;;;;;;;;;;;;;;;6.69;64.64;100779.38;4972228;28;19914;-80
2021/01/21 11:23:19;;;;;;;;;;;;;;;6.71;64.29;100771.78;4961332;28;20292;-80
2021/01/21 11:26:03;;;;;;;;;;;;;;;6.82;63.55;100765.16;4972192;28;19914;-79
2021/01/21 11:28:48;;;;;;;;;;;;;;;6.85;63.44;100760.00;4972227;28;19914;-80
2021/01/21 11:31:32;;;;;;;;;;;;;;;6.98;62.83;100757.69;4973985;28;20331;-80
2021/01/21 11:34:16;;;;;;;;;;;;;;;7.04;63.21;100754.63;4965270;28;19913;-80
2021/01/21 11:37:01;;;;;;;;;;;;;;;6.88;63.32;100747.81;4961250;28;19915;-80
2021/01/21 11:39:46;;;;;;;;;;;;;;;6.83;64.28;100748.66;4940171;28;19923;-80
2021/01/21 11:42:30;;;;;;;;;;;;;;;6.74;64.70;100744.19;4949670;28;19914;-81
2021/01/21 11:45:14;;;;;;;;;;;;;;;6.80;64.49;100749.25;4954905;29;19914;-80
2021/01/21 11:47:59;;;;;;;;;;;;;;;6.90;64.24;100756.44;4937186;29;19918;-81
2021/01/21 11:50:43;;;;;;;;;;;;;;;6.84;64.66;100754.88;4944764;28;19922;-81
2021/01/21 11:53:28;;;;;;;;;;;;;;;6.92;64.48;100745.31;4957991;28;19922;-81
2021/01/21 11:56:12;;;;;;;;;;;;;;;6.64;65.79;100738.91;4953599;28;19914;-81
2021/01/21 11:58:56;;;;;;;;;;;;;;;6.53;66.99;100738.22;4961258;28;19918;-80
2021/01/21 12:01:42;;;;;;;;;;;;;;;6.71;65.67;100736.66;4964407;28;19914;-82
2021/01/21 12:04:26;;;;;;;;;;;;;;;6.73;65.58;100727.19;4944954;28;19914;-81
2021/01/21 12:07:10;;;;;;;;;;;;;;;6.66;66.13;100713.19;4955471;29;19914;-81
2021/01/21 12:09:55;;;;;;;;;;;;;;;6.80;65.59;100722.25;4960743;28;20376;-81
2021/01/21 12:12:39;;;;;;;;;;;;;;;6.57;66.81;100717.63;4958435;28;19914;-83
2021/01/21 12:15:24;;;;;;;;;;;;;;;6.17;67.31;100718.91;4955333;29;19914;-81
2021/01/21 12:18:11;;;;;;;;;;;;;;;6.38;66.81;100709.50;4968071;28;19918;-84
2021/01/21 12:20:55;;;;;;;;;;;;;;;6.41;66.77;100702.69;4962962;28;19914;-81
2021/01/21 12:23:39;;;;;;;;;;;;;;;6.51;65.83;100693.66;4969944;28;19917;-80
2021/01/21 12:26:24;;;;;;;;;;;;;;;6.40;66.43;100691.09;4967572;28;19914;-80
2021/01/21 12:29:09;;;;;;;;;;;;;;;6.50;67.03;100690.19;4974485;28;19914;-80
2021/01/21 12:31:55;;;;;;;;;;;;;;;6.25;67.66;100687.75;4965869;28;19922;-79
2021/01/21 12:34:39;;;;;;;;;;;;;;;6.09;68.67;100679.03;4966042;28;19922;-80
2021/01/21 12:37:27;;;;;;;;;;;;;;;6.18;68.80;100676.50;4965655;28;19914;-80
2021/01/21 12:40:12;;;;;;;;;;;;;;;6.15;68.20;100677.88;4954865;28;19914;-80
2021/01/21 12:43:00;;;;;;;;;;;;;;;6.25;67.69;100682.34;4965623;28;19918;-80
2021/01/21 12:45:45;;;;;;;;;;;;;;;6.32;67.17;100678.22;4965426;28;19914;-79
2021/01/21 12:48:30;;;;;;;;;;;;;;;6.33;67.86;100679.03;4962926;28;19914;-79
2021/01/21 12:51:14;;;;;;;;;;;;;;;6.33;68.02;100681.75;4974888;28;19937;-79
2021/01/21 12:53:58;;;;;;;;;;;;;;;6.32;67.86;100688.22;4973962;28;19914;-79
2021/01/21 12:56:43;;;;;;;;;;;;;;;6.32;67.56;100688.22;4980637;28;19914;-79
2021/01/21 12:59:27;;;;;;;;;;;;;;;6.05;69.07;100667.19;4970302;28;19933;-80
2021/01/21 13:02:12;;;;;;;;;;;;;;;5.84;69.80;100671.94;4966980;28;19914;-80
2021/01/21 13:04:56;;;;;;;;;;;;;;;6.04;69.05;100681.78;4963476;28;19914;-79
2021/01/21 13:07:42;;;;;;;;;;;;;;;5.89;70.30;100668.44;4977893;28;20504;-80
2021/01/21 13:10:26;;;;;;;;;;;;;;;5.90;70.34;100670.84;4955503;28;20393;-80
2021/01/21 13:13:13;;;;;;;;;;;;;;;5.95;70.50;100673.50;4954744;29;19914;-79
2021/01/21 13:15:57;;;;;;;;;;;;;;;6.07;69.88;100670.41;4961374;28;19914;-80
2021/01/21 13:18:43;;;;;;;;;;;;;;;6.13;69.55;100671.16;4959157;28;20385;-80
2021/01/21 13:21:27;;;;;;;;;;;;;;;6.08;70.05;100666.63;4975778;28;20381;-79
2021/01/21 13:24:12;;;;;;;;;;;;;;;5.96;70.22;100656.22;4945252;28;19915;-79
2021/01/21 13:26:56;;;;;;;;;;;;;;;6.04;70.40;100656.69;4947024;28;19914;-79
2021/01/21 13:29:41;;;;;;;;;;;;;;;6.00;70.64;100645.66;4985920;28;19914;-80
2021/01/21 13:32:25;;;;;;;;;;;;;;;5.79;71.20;100638.84;4958461;28;19914;-80
2021/01/21 13:35:10;;;;;;;;;;;;;;;6.11;70.04;100643.63;4965501;28;19915;-79
2021/01/21 13:37:55;;;;;;;;;;;;;;;6.22;69.32;100651.34;4957820;28;19922;-80
2021/01/21 13:40:39;;;;;;;;;;;;;;;6.30;69.80;100650.69;4961766;28;19918;-80
2021/01/21 13:43:24;;;;;;;;;;;;;;;6.23;69.95;100652.16;4955578;28;20369;-80
2021/01/21 13:46:08;;;;;;;;;;;;;;;6.14;70.25;100652.00;4970031;28;19916;-82
2021/01/21 13:48:52;;;;;;;;;;;;;;;6.13;70.50;100653.06;4966740;28;19915;-79
2021/01/21 13:51:38;;;;;;;;;;;;;;;6.20;69.34;100652.72;4953152;29;20296;-80
2021/01/21 13:54:22;;;;;;;;;;;;;;;6.10;70.69;100652.81;4967584;28;19918;-80
2021/01/21 13:57:07;;;;;;;;;;;;;;;6.19;70.00;100645.72;4974046;28;20456;-79
2021/01/21 13:59:51;;;;;;;;;;;;;;;6.16;70.46;100648.97;4952576;28;19919;-80
2021/01/21 14:02:37;;;;;;;;;;;;;;;6.13;70.57;100649.56;4950573;29;19914;-80
2021/01/21 14:05:21;;;;;;;;;;;;;;;6.09;70.99;100645.84;4977941;22;19922;-83
2021/01/21 14:08:06;;;;;;;;;;;;;;;6.04;71.32;100637.81;4974461;28;19918;-83
2021/01/21 14:10:50;;;;;;;;;;;;;;;6.11;71.53;100640.94;4966736;28;19918;-82
2021/01/21 14:13:35;;;;;;;;;;;;;;;6.21;71.37;100638.13;4960633;28;19914;-83
2021/01/21 14:16:21;;;;;;;;;;;;;;;6.42;71.00;100634.91;4957365;29;19930;-82
2021/01/21 14:19:05;;;;;;;;;;;;;;;6.33;71.21;100631.25;4957837;29;20320;-83
2021/01/21 14:21:50;;;;;;;;;;;;;;;6.16;71.24;100630.09;4968119;29;20306;-84
2021/01/21 14:24:34;;;;;;;;;;;;;;;6.23;71.89;100630.56;4958189;28;19921;-83
2021/01/21 14:27:18;;;;;;;;;;;;;;;5.90;72.46;100626.84;4955772;29;19914;-84
2021/01/21 14:30:04;;;;;;;;;;;;;;;6.11;72.11;100635.53;4958663;28;19914;-83
2021/01/21 14:32:48;;;;;;;;;;;;;;;6.19;72.07;100637.63;4954824;29;19918;-83
2021/01/21 14:35:33;;;;;;;;;;;;;;;6.05;72.85;100640.19;4955916;29;19915;-83
2021/01/21 14:38:18;;;;;;;;;;;;;;;6.00;72.99;100632.97;4956466;29;19918;-83
2021/01/21 14:41:03;;;;;;;;;;;;;;;6.17;72.28;100642.50;4957029;29;20373;-83
2021/01/21 14:43:47;;;;;;;;;;;;;;;6.13;71.92;100647.69;4966105;28;19923;-82
2021/01/21 14:46:32;;;;;;;;;;;;;;;5.91;73.20;100639.28;4950493;29;19914;-81
2021/01/21 14:49:16;;;;;;;;;;;;;;;5.77;74.22;100641.00;4959940;29;19914;-81
2021/01/21 14:52:01;;;;;;;;;;;;;;;5.70;74.57;100640.53;4959873;29;19918;-80
2021/01/21 14:54:45;;;;;;;;;;;;;;;5.69;74.57;100647.81;4965257;28;19914;-81
2021/01/21 14:57:30;;;;;;;;;;;;;;;5.69;74.11;100642.41;4961793;29;19914;-81
2021/01/21 15:00:15;;;;;;;;;;;;;;;5.60;74.78;100638.72;4959142;29;19918;-81
2021/01/21 15:03:00;;;;;;;;;;;;;;;5.70;74.67;100640.53;4961912;28;19922;-82
2021/01/21 15:05:45;;;;;;;;;;;;;;;5.61;74.86;100634.94;4962219;29;19926;-81
2021/01/21 15:08:29;;;;;;;;;;;;;;;5.46;75.31;100627.81;4969203;28;19922;-82
2021/01/21 15:11:14;;;;;;;;;;;;;;;5.48;75.38;100630.22;4952704;29;19915;-82
2021/01/21 15:13:59;;;;;;;;;;;;;;;5.36;76.00;100619.00;4949337;28;20308;-82
2021/01/21 15:16:44;;;;;;;;;;;;;;;5.49;75.71;100607.53;4955242;28;19914;-82
2021/01/21 15:19:28;;;;;;;;;;;;;;;5.55;75.64;100619.91;4962875;29;20380;-83
2021/01/21 15:22:12;;;;;;;;;;;;;;;5.47;76.55;100615.94;4976577;28;20295;-83
2021/01/21 15:24:58;;;;;;;;;;;;;;;5.56;75.47;100626.91;4961787;28;20388;-80
2021/01/21 15:27:43;;;;;;;;;;;;;;;5.47;75.57;100624.03;4961935;28;19915;-82
2021/01/21 15:30:27;;;;;;;;;;;;;;;5.48;75.73;100617.56;4961800;29;19914;-82
2021/01/21 15:33:12;;;;;;;;;;;;;;;5.40;77.13;100612.75;4964323;29;19915;-81
2021/01/21 15:35:57;;;;;;;;;;;;;;;5.45;76.42;100607.31;4966436;28;19915;-82
2021/01/21 15:38:41;;;;;;;;;;;;;;;5.35;76.46;100610.09;4967857;28;19923;-79
2021/01/21 15:41:26;;;;;;;;;;;;;;;5.33;76.78;100606.09;4969218;28;19922;-81
2021/01/21 15:44:10;;;;;;;;;;;;;;;5.52;76.05;100604.28;4969190;28;19918;-81
2021/01/21 15:46:55;;;;;;;;;;;;;;;5.66;75.26;100607.13;4954122;29;19914;-81
2021/01/21 15:49:40;;;;;;;;;;;;;;;5.54;75.58;100607.50;4950919;29;19915;-82
2021/01/21 15:52:24;;;;;;;;;;;;;;;5.56;75.52;100610.72;4956714;29;19914;-81
2021/01/21 15:55:10;;;;;;;;;;;;;;;5.51;76.01;100618.88;4958702;28;19914;-80
2021/01/21 15:57:54;;;;;;;;;;;;;;;5.58;75.50;100614.75;4966197;29;20537;-81
2021/01/21 16:00:40;;;;;;;;;;;;;;;5.40;76.02;100610.06;4963514;29;19919;-83
2021/01/21 16:03:24;;;;;;;;;;;;;;;5.31;76.73;100617.16;4963899;28;19914;-82
2021/01/21 16:06:09;;;;;;;;;;;;;;;5.34;76.85;100613.06;4965471;29;19914;-82
2021/01/21 16:08:53;;;;;;;;;;;;;;;5.34;77.23;100613.06;4962904;29;19914;-82
2021/01/21 16:11:38;;;;;;;;;;;;;;;5.32;77.21;100609.88;4953431;29;19914;-82
2021/01/21 16:14:22;;;;;;;;;;;;;;;5.51;76.42;100600.78;4962445;28;19918;-81
2021/01/21 16:17:07;;;;;;;;;;;;;;;5.32;77.00;100613.38;4964896;29;19918;-81
2021/01/21 16:19:51;;;;;;;;;;;;;;;5.32;77.51;100610.69;4958018;28;19925;-84
2021/01/21 16:22:36;;;;;;;;;;;;;;;5.24;78.18;100603.19;4965867;29;19915;-83
2021/01/21 16:25:20;;;;;;;;;;;;;;;5.36;76.90;100600.13;4952343;29;20192;-83
2021/01/21 16:28:05;;;;;;;;;;;;;;;5.34;76.80;100608.50;4967355;29;19914;-81
2021/01/21 16:30:50;;;;;;;;;;;;;;;5.28;77.58;100584.56;4967775;29;19915;-82
2021/01/21 16:33:35;;;;;;;;;;;;;;;5.14;78.21;100593.28;4966691;28;19914;-82
2021/01/21 16:36:20;;;;;;;;;;;;;;;5.20;78.25;100585.97;4975974;28;20391;-82
2021/01/21 16:39:04;;;;;;;;;;;;;;;5.50;77.14;100584.88;4955783;29;19918;-83
2021/01/21 16:41:49;;;;;;;;;;;;;;;5.37;76.72;100569.38;4951390;28;20381;-80
2021/01/21 16:44:33;;;;;;;;;;;;;;;5.48;76.22;100576.28;4953746;29;19914;-81
2021/01/21 16:47:18;;;;;;;;;;;;;;;5.65;75.93;100578.53;4961661;29;19914;-83
2021/01/21 16:50:03;;;;;;;;;;;;;;;5.74;75.66;100580.31;4960709;28;20384;-83
2021/01/21 16:52:47;;;;;;;;;;;;;;;5.82;74.83;100577.00;4958707;28;19914;-83
2021/01/21 16:55:32;;;;;;;;;;;;;;;5.88;74.71;100580.50;4965470;28;20288;-84
2021/01/21 16:58:18;;;;;;;;;;;;;;;6.11;73.55;100578.84;4960514;28;19914;-84
2021/01/21 17:01:02;;;;;;;;;;;;;;;6.23;73.26;100585.47;4978181;28;20394;-84
2021/01/21 17:03:47;;;;;;;;;;;;;;;6.32;73.32;100586.41;4975687;28;19915;-85
2021/01/21 17:06:32;;;;;;;;;;;;;;;6.19;73.73;100581.75;4971713;28;19914;-83
2021/01/21 17:09:17;;;;;;;;;;;;;;;6.21;73.71;100582.22;4961949;28;19914;-84
2021/01/21 17:12:02;;;;;;;;;;;;;;;6.18;74.32;100573.91;4972885;28;20312;-83
2021/01/21 17:14:46;;;;;;;;;;;;;;;6.24;73.47;100567.38;4973940;28;19914;-84
2021/01/21 17:17:31;;;;;;;;;;;;;;;6.39;72.72;100567.97;4954180;29;19918;-84
2021/01/21 17:20:20;;;;;;;;;;;;;;;6.40;72.44;100569.56;4973497;28;19919;-85
2021/01/21 17:23:05;;;;;;;;;;;;;;;6.43;71.75;100557.38;4971187;28;19915;-84
2021/01/21 17:25:50;;;;;;;;;;;;;;;6.68;70.50;100562.41;4956210;29;19914;-85
2021/01/21 17:28:34;;;;;;;;;;;;;;;6.62;70.37;100562.78;4959278;29;19914;-83
2021/01/21 17:31:19;;;;;;;;;;;;;;;6.64;70.98;100566.00;4957162;29;19914;-84
2021/01/21 17:34:03;;;;;;;;;;;;;;;6.57;69.96;100555.56;4956415;29;19918;-83
2021/01/21 17:36:48;;;;;;;;;;;;;;;6.40;70.87;100555.25;4968510;29;19914;-83
2021/01/21 17:39:33;;;;;;;;;;;;;;;6.54;71.06;100556.16;4968114;29;19918;-83
2021/01/21 17:42:17;;;;;;;;;;;;;;;6.67;70.91;100563.50;4968034;28;19914;-85
2021/01/21 17:45:02;;;;;;;;;;;;;;;6.78;70.02;100562.28;4959324;28;19918;-86
2021/01/21 17:47:48;;;;;;;;;;;;;;;6.68;70.07;100561.63;4965775;28;19914;-86
2021/01/21 17:50:32;;;;;;;;;;;;;;;6.54;70.84;100549.94;4969440;28;19914;-87
2021/01/21 17:53:16;;;;;;;;;;;;;;;6.64;70.17;100539.78;4953731;28;19914;-86
2021/01/21 17:56:01;;;;;;;;;;;;;;;6.58;70.55;100534.75;4948328;28;19918;-84
2021/01/21 17:58:46;;;;;;;;;;;;;;;6.63;70.29;100540.88;4961550;28;19918;-84
2021/01/21 18:01:30;;;;;;;;;;;;;;;6.60;70.66;100532.56;4954114;28;19914;-85
2021/01/21 18:04:16;;;;;;;;;;;;;;;6.43;71.13;100524.97;4963048;28;19915;-87
2021/01/21 18:07:02;;;;;;;;;;;;;;;6.41;71.31;100519.84;4958838;29;19914;-85
2021/01/21 18:09:46;;;;;;;;;;;;;;;6.66;70.44;100520.56;4960861;28;19914;-88
2021/01/21 18:12:32;;;;;;;;;;;;;;;6.60;71.05;100527.97;4958986;28;20289;-85
2021/01/21 18:15:17;;;;;;;;;;;;;;;6.30;71.67;100537.28;4958766;28;19914;-84
2021/01/21 18:18:03;;;;;;;;;;;;;;;6.79;70.58;100536.06;4960996;29;19918;-84
2021/01/21 18:20:47;;;;;;;;;;;;;;;6.54;71.07;100539.13;4965341;29;19918;-87
2021/01/21 18:23:32;;;;;;;;;;;;;;;6.34;71.53;100545.63;4968427;28;19918;-87
2021/01/21 18:26:16;;;;;;;;;;;;;;;6.42;71.63;100553.88;4956973;29;19914;-88
2021/01/21 18:29:01;;;;;;;;;;;;;;;6.57;73.70;100536.66;4954118;28;19914;-90
2021/01/21 18:31:45;;;;;;;;;;;;;;;6.58;71.29;100535.56;4967530;28;19914;-88
2021/01/21 18:34:30;;;;;;;;;;;;;;;6.65;70.88;100532.50;4968647;28;19914;-88
2021/01/21 18:37:15;;;;;;;;;;;;;;;6.62;71.23;100523.06;4952257;28;19914;-89
2021/01/21 18:39:59;;;;;;;;;;;;;;;6.67;70.69;100509.47;4971326;28;19918;-90
2021/01/21 18:42:44;;;;;;;;;;;;;;;6.64;70.98;100518.19;4967356;28;19915;-88
2021/01/21 18:45:29;;;;;;;;;;;;;;;6.78;71.14;100524.44;4963803;28;19914;-88
2021/01/21 18:48:14;;;;;;;;;;;;;;;6.79;70.30;100525.25;4958911;29;19914;-88
2021/01/21 18:51:00;;;;;;;;;;;;;;;6.80;70.66;100524.16;4949013;28;19914;-88
2021/01/21 18:53:44;;;;;;;;;;;;;;;6.70;70.72;100517.00;4965983;28;19914;-87
2021/01/21 18:56:29;;;;;;;;;;;;;;;6.73;70.94;100505.59;4966259;28;19914;-86
2021/01/21 18:59:14;;;;;;;;;;;;;;;6.78;70.61;100512.81;4963895;28;20292;-88
2021/01/21 19:02:00;;;;;;;;;;;;;;;6.93;69.34;100509.88;4964728;28;19915;-88
2021/01/21 19:04:44;;;;;;;;;;;;;;;6.96;69.70;100500.38;4957796;28;19915;-88
2021/01/21 19:07:28;;;;;;;;;;;;;;;7.21;68.42;100499.94;4959004;28;19914;-88
2021/01/21 19:10:13;;;;;;;;;;;;;;;6.96;69.58;100476.06;4966958;28;19914;-88
2021/01/21 19:12:58;;;;;;;;;;;;;;;6.90;70.06;100471.84;4953384;28;19914;-88
2021/01/21 19:15:44;;;;;;;;;;;;;;;6.85;70.09;100465.41;4952924;28;19914;-89
2021/01/21 19:18:28;;;;;;;;;;;;;;;6.83;70.70;100462.19;4950704;28;19926;-88
2021/01/21 19:21:13;;;;;;;;;;;;;;;6.90;71.27;100475.34;4962804;28;19918;-88
2021/01/21 19:23:57;;;;;;;;;;;;;;;6.79;71.98;100488.22;4961568;28;19914;-87
2021/01/21 19:26:42;;;;;;;;;;;;;;;6.62;72.75;100484.44;4958269;28;19919;-87
2021/01/21 19:29:26;;;;;;;;;;;;;;;6.64;70.99;100477.66;4961327;28;19922;-86
2021/01/21 19:32:13;;;;;;;;;;;;;;;6.65;71.11;100471.16;4945521;28;19919;-86
2021/01/21 19:34:57;;;;;;;;;;;;;;;6.81;70.41;100455.47;4961724;28;19915;-85
2021/01/21 19:37:42;;;;;;;;;;;;;;;6.88;70.16;100455.91;4966109;28;20312;-85
2021/01/21 19:40:26;;;;;;;;;;;;;;;6.72;70.22;100441.84;4960722;28;19926;-84
2021/01/21 19:43:11;;;;;;;;;;;;;;;6.55;70.78;100430.81;4962711;28;19923;-83
2021/01/21 19:45:59;;;;;;;;;;;;;;;6.85;70.99;100443.81;4953253;28;19914;-84
2021/01/21 19:48:44;;;;;;;;;;;;;;;6.94;69.50;100443.09;4956449;29;19915;-82
2021/01/21 19:51:28;;;;;;;;;;;;;;;6.77;70.06;100443.66;4941994;29;19914;-83
2021/01/21 19:54:13;;;;;;;;;;;;;;;6.67;70.24;100420.31;4959757;28;19923;-84
2021/01/21 19:56:57;;;;;;;;;;;;;;;6.62;70.68;100427.69;4946695;29;19914;-84
2021/01/21 19:59:41;;;;;;;;;;;;;;;6.66;70.02;100418.72;4957533;29;20510;-84
2021/01/21 20:02:26;;;;;;;;;;;;;;;6.67;70.85;100419.50;4953780;28;19914;-84
2021/01/21 20:05:11;;;;;;;;;;;;;;;6.52;70.71;100433.28;4958191;28;19914;-84
2021/01/21 20:07:56;;;;;;;;;;;;;;;6.47;71.13;100441.47;4990102;23;19922;-87
2021/01/21 20:10:40;;;;;;;;;;;;;;;6.33;71.60;100447.63;4964184;28;19918;-82
2021/01/21 20:13:25;;;;;;;;;;;;;;;6.27;72.03;100453.38;4964139;28;19914;-83
2021/01/21 20:16:10;;;;;;;;;;;;;;;6.44;71.37;100435.56;4970678;28;19917;-83
2021/01/21 20:18:54;;;;;;;;;;;;;;;6.45;71.39;100418.25;4975488;28;20299;-84
2021/01/21 20:21:39;;;;;;;;;;;;;;;6.35;71.62;100413.00;4969874;28;19914;-85
2021/01/21 20:24:23;;;;;;;;;;;;;;;6.54;70.94;100407.59;4969712;28;19914;-84
2021/01/21 20:27:08;;;;;;;;;;;;;;;6.56;69.99;100397.28;4965937;28;19914;-84
2021/01/21 20:29:53;;;;;;;;;;;;;;;6.50;69.98;100386.88;4964314;28;19914;-84
2021/01/21 20:32:38;;;;;;;;;;;;;;;6.45;70.98;100387.72;4972114;28;19922;-84
2021/01/21 20:35:23;;;;;;;;;;;;;;;6.52;70.66;100371.94;4984030;28;19913;-82
2021/01/21 20:38:08;;;;;;;;;;;;;;;6.77;69.79;100360.69;4980570;28;19914;-82
2021/01/21 20:40:52;;;;;;;;;;;;;;;6.72;69.61;100362.69;4980539;28;19918;-82
2021/01/21 20:43:37;;;;;;;;;;;;;;;6.67;69.99;100362.78;4995554;28;19914;-82
2021/01/21 20:46:21;;;;;;;;;;;;;;;6.68;69.97;100367.88;4991144;28;19914;-81
2021/01/21 20:49:06;;;;;;;;;;;;;;;6.67;69.97;100360.06;4997808;28;20303;-82
2021/01/21 20:51:50;;;;;;;;;;;;;;;6.60;70.72;100359.69;4992580;28;19918;-83
2021/01/21 20:54:35;;;;;;;;;;;;;;;6.69;70.05;100355.19;4984409;28;19918;-84
2021/01/21 20:57:19;;;;;;;;;;;;;;;6.70;69.92;100354.91;4978645;28;20264;-82
2021/01/21 21:00:04;;;;;;;;;;;;;;;6.62;70.13;100350.16;4980039;28;19918;-81
2021/01/21 21:02:49;;;;;;;;;;;;;;;6.37;71.83;100346.00;4987343;28;19914;-82
2021/01/21 21:05:34;;;;;;;;;;;;;;;6.54;71.21;100340.06;4985605;28;19914;-82
2021/01/21 21:08:18;;;;;;;;;;;;;;;6.63;70.98;100346.38;4986632;28;19914;-83
2021/01/21 21:11:03;;;;;;;;;;;;;;;6.66;70.18;100343.06;4986870;28;20300;-81
2021/01/21 21:13:47;;;;;;;;;;;;;;;6.64;69.93;100337.19;4976252;28;20295;-83
2021/01/21 21:16:32;;;;;;;;;;;;;;;6.69;70.71;100337.09;4980783;28;21540;-83
2021/01/21 21:19:17;;;;;;;;;;;;;;;6.68;70.52;100343.56;4985026;28;19922;-83
2021/01/21 21:22:01;;;;;;;;;;;;;;;6.71;70.67;100345.66;4976147;28;19929;-80
2021/01/21 21:24:46;;;;;;;;;;;;;;;6.65;70.89;100344.19;4984986;28;19914;-82
2021/01/21 21:27:31;;;;;;;;;;;;;;;6.37;71.71;100337.91;4983659;28;20299;-84
2021/01/21 21:30:19;;;;;;;;;;;;;;;6.32;72.37;100334.50;4976318;28;19914;-85
2021/01/21 21:33:04;;;;;;;;;;;;;;;6.32;72.48;100340.69;4983052;28;19922;-83
2021/01/21 21:35:49;;;;;;;;;;;;;;;6.29;72.30;100341.31;4977783;28;19914;-82
2021/01/21 21:38:34;;;;;;;;;;;;;;;6.32;73.08;100345.28;4978514;28;20388;-82
2021/01/21 21:41:19;;;;;;;;;;;;;;;6.36;73.34;100351.69;4966830;28;19922;-84
2021/01/21 21:44:03;;;;;;;;;;;;;;;6.44;73.01;100361.84;4981530;28;19914;-84
2021/01/21 21:46:48;;;;;;;;;;;;;;;6.36;73.00;100355.19;4971359;28;19914;-81
2021/01/21 21:49:34;;;;;;;;;;;;;;;6.59;71.60;100337.25;4980726;28;19914;-83
2021/01/21 21:52:18;;;;;;;;;;;;;;;6.59;71.77;100331.88;4978609;28;19913;-82
2021/01/21 21:55:04;;;;;;;;;;;;;;;6.66;71.30;100337.66;4977187;28;19914;-82
2021/01/21 21:57:48;;;;;;;;;;;;;;;6.73;70.73;100316.47;4980269;28;19922;-83
2021/01/21 22:00:34;;;;;;;;;;;;;;;6.78;70.58;100304.75;4965384;28;20299;-82
2021/01/21 22:03:18;;;;;;;;;;;;;;;6.66;71.51;100299.84;4970361;28;19914;-83
2021/01/21 22:06:03;;;;;;;;;;;;;;;6.68;71.37;100286.84;4966438;28;19922;-83
2021/01/21 22:08:48;;;;;;;;;;;;;;;6.75;70.79;100287.25;4964170;28;19914;-83
2021/01/21 22:11:32;;;;;;;;;;;;;;;6.70;71.30;100281.94;4984275;28;20404;-85
2021/01/21 22:14:17;;;;;;;;;;;;;;;6.70;71.86;100264.94;4982424;28;19914;-82
2021/01/21 22:17:02;;;;;;;;;;;;;;;6.70;71.49;100262.22;4975361;28;19914;-84
2021/01/21 22:19:47;;;;;;;;;;;;;;;6.72;71.47;100265.41;4976917;28;19918;-83
2021/01/21 22:22:31;;;;;;;;;;;;;;;6.93;70.08;100265.81;4969032;28;20395;-82
2021/01/21 22:25:16;;;;;;;;;;;;;;;6.81;71.29;100252.78;4962356;28;19914;-82
2021/01/21 22:28:00;;;;;;;;;;;;;;;6.76;71.07;100248.31;4971525;28;19914;-82
2021/01/21 22:30:45;;;;;;;;;;;;;;;6.76;71.35;100240.19;4974625;28;19914;-82
2021/01/21 22:33:29;;;;;;;;;;;;;;;6.71;71.16;100232.19;4964089;28;19918;-85
2021/01/21 22:36:15;;;;;;;;;;;;;;;6.77;71.00;100231.00;4964189;28;19914;-82
2021/01/21 22:38:59;;;;;;;;;;;;;;;6.90;70.35;100225.88;4963574;28;19922;-83
2021/01/21 22:41:43;;;;;;;;;;;;;;;6.89;70.94;100219.69;4968462;28;19926;-81
2021/01/21 22:44:30;;;;;;;;;;;;;;;6.85;71.27;100214.09;4976602;28;19914;-82
2021/01/21 22:47:15;;;;;;;;;;;;;;;6.83;71.75;100207.38;4981620;28;19914;-83
2021/01/21 22:50:00;;;;;;;;;;;;;;;6.91;70.91;100211.28;4979794;28;20292;-83
2021/01/21 22:52:44;;;;;;;;;;;;;;;6.94;70.96;100210.66;4967725;28;20308;-84
2021/01/21 22:55:29;;;;;;;;;;;;;;;6.93;71.15;100187.44;4978725;28;19914;-84
2021/01/21 22:58:14;;;;;;;;;;;;;;;6.85;70.96;100187.06;4974745;28;19914;-82
2021/01/21 23:00:58;;;;;;;;;;;;;;;6.69;71.35;100185.78;4958755;28;19918;-83
2021/01/21 23:03:42;;;;;;;;;;;;;;;6.44;72.95;100179.00;4965191;28;19914;-82
2021/01/21 23:06:27;;;;;;;;;;;;;;;6.55;73.04;100173.41;4975295;28;19921;-83
2021/01/21 23:09:11;;;;;;;;;;;;;;;6.69;72.17;100169.56;4978386;28;19914;-82
2021/01/21 23:11:56;;;;;;;;;;;;;;;6.72;71.64;100163.56;4973769;28;19914;-81
2021/01/21 23:14:40;;;;;;;;;;;;;;;6.71;71.70;100164.66;4963668;28;19914;-82
2021/01/21 23:17:25;;;;;;;;;;;;;;;6.46;72.88;100157.06;4959406;28;19913;-83
2021/01/21 23:20:10;;;;;;;;;;;;;;;6.42;73.69;100156.88;4958855;28;19922;-83
2021/01/21 23:22:54;;;;;;;;;;;;;;;6.49;73.23;100159.19;4973938;28;19914;-80
2021/01/21 23:25:39;;;;;;;;;;;;;;;6.48;73.54;100163.00;4972892;28;19914;-81
2021/01/21 23:28:24;;;;;;;;;;;;;;;6.47;73.42;100166.78;4969307;28;20376;-81
2021/01/21 23:31:09;;;;;;;;;;;;;;;6.47;73.32;100166.78;4965826;28;19914;-80
2021/01/21 23:33:53;;;;;;;;;;;;;;;6.60;73.09;100154.38;4970123;28;20392;-84
2021/01/21 23:36:37;;;;;;;;;;;;;;;6.80;71.89;100143.94;4973168;28;19922;-83
2021/01/21 23:39:22;;;;;;;;;;;;;;;6.77;71.89;100136.41;4972854;28;19914;-82
2021/01/21 23:42:06;;;;;;;;;;;;;;;6.76;71.31;100126.72;4973033;28;19914;-83
2021/01/21 23:44:50;;;;;;;;;;;;;;;7.10;69.72;100114.59;4967270;28;19918;-81
2021/01/21 23:47:35;;;;;;;;;;;;;;;7.15;69.25;100099.06;4982781;28;19914;-83
2021/01/21 23:50:19;;;;;;;;;;;;;;;6.96;70.58;100090.31;4982398;28;19922;-82
2021/01/21 23:53:04;;;;;;;;;;;;;;;6.85;70.68;100080.88;4981822;28;19914;-83
2021/01/21 23:55:48;;;;;;;;;;;;;;;6.74;71.60;100079.50;4998999;28;19914;-85
2021/01/21 23:58:32;;;;;;;;;;;;;;;6.77;71.26;100068.06;4981351;28;20308;-85
